Time;durP1;ratioP1;P1;durP2;ratioP2;P2;SDS_P1;SDS_P2;PMS_P1;PMS_P2;Temp;Humidity;BMP_temperature;BMP_pressure;BME280_temperature;BME280_humidity;BME280_pressure;Samples;Min_cycle;Max_cycle;Signal;HPM_P1;HPM_P2
2021/11/20 00:00:37;;;;;;;36.88;19.83;;;8.50;99.90;;;;;;5081191;28;20374;-54
2021/11/20 00:03:04;;;;;;;27.30;14.10;;;8.40;99.90;;;;;;5078046;28;20406;-54
2021/11/20 00:05:35;;;;;;;21.90;11.30;;;8.50;99.90;;;;;;5073569;28;20406;-55
2021/11/20 00:08:01;;;;;;;19.20;10.20;;;8.60;99.90;;;;;;5082770;28;20733;-54
2021/11/20 00:10:30;;;;;;;24.83;11.98;;;8.60;99.90;;;;;;5080871;28;20490;-54
2021/11/20 00:12:56;;;;;;;20.40;10.10;;;8.70;99.90;;;;;;5081406;28;20402;-54
2021/11/20 00:15:27;;;;;;;18.60;9.57;;;8.70;99.90;;;;;;5080953;28;20374;-54
2021/11/20 00:17:54;;;;;;;16.45;9.20;;;8.70;99.90;;;;;;5078840;28;20374;-54
2021/11/20 00:20:23;;;;;;;17.98;9.27;;;8.60;99.90;;;;;;5074578;28;20376;-54
2021/11/20 00:22:50;;;;;;;19.52;9.30;;;8.40;99.90;;;;;;5071190;28;20393;-54
2021/11/20 00:25:22;;;;;;;15.82;8.02;;;8.40;99.90;;;;;;5076049;28;20402;-54
2021/11/20 00:27:50;;;;;;;16.80;8.25;;;8.30;99.90;;;;;;5082285;28;20471;-54
2021/11/20 00:30:20;;;;;;;16.02;8.07;;;8.20;99.90;;;;;;5075486;28;20418;-54
2021/11/20 00:32:59;;;;;;;16.10;8.23;;;8.20;99.90;;;;;;5087755;28;20889;-54
2021/11/20 00:35:29;;;;;;;15.68;7.28;;;8.40;99.90;;;;;;5088287;28;20402;-54
2021/11/20 00:37:55;;;;;;;17.17;8.80;;;8.50;99.90;;;;;;5088895;28;20370;-54
2021/11/20 00:40:30;;;;;;;17.17;9.38;;;8.40;99.90;;;;;;5088155;28;20458;-54
2021/11/20 00:42:57;;;;;;;16.90;8.30;;;8.30;99.90;;;;;;5088951;28;20402;-54
2021/11/20 00:45:22;;;;;;;18.08;8.60;;;8.30;99.90;;;;;;5087894;28;20517;-54
2021/11/20 00:47:48;;;;;;;17.58;8.30;;;8.20;99.90;;;;;;5070359;28;20855;-54
2021/11/20 00:50:17;;;;;;;14.43;7.77;;;8.10;99.90;;;;;;5088169;28;20381;-54
2021/11/20 00:52:44;;;;;;;18.83;9.40;;;8.00;99.90;;;;;;5088453;28;20731;-54
2021/11/20 00:55:14;;;;;;;17.17;8.57;;;8.00;99.90;;;;;;5087760;28;20374;-54
2021/11/20 00:57:42;;;;;;;16.85;8.32;;;8.10;99.90;;;;;;5088850;28;20424;-54
2021/11/20 01:00:12;;;;;;;15.75;7.93;;;8.20;99.90;;;;;;5087948;28;20473;-54
2021/11/20 01:02:38;;;;;;;16.42;8.27;;;8.10;99.90;;;;;;5088413;28;20378;-54
2021/11/20 01:05:05;;;;;;;15.68;8.60;;;8.10;99.90;;;;;;5086786;28;20379;-54
2021/11/20 01:07:31;;;;;;;15.73;7.88;;;8.10;99.90;;;;;;5070642;28;20461;-54
2021/11/20 01:09:57;;;;;;;16.00;8.30;;;8.00;99.90;;;;;;5088745;28;20408;-54
2021/11/20 01:12:29;;;;;;;16.45;8.43;;;8.00;99.90;;;;;;5073217;28;20406;-54
2021/11/20 01:14:56;;;;;;;17.08;8.95;;;8.00;99.90;;;;;;5068252;28;20883;-54
2021/11/20 01:17:27;;;;;;;16.10;9.00;;;8.00;99.90;;;;;;5067719;28;20388;-54
2021/11/20 01:19:53;;;;;;;15.77;8.70;;;8.00;99.90;;;;;;5068598;28;20447;-54
2021/11/20 01:22:22;;;;;;;17.83;9.30;;;8.00;99.90;;;;;;5049699;28;20824;-54
2021/11/20 01:24:49;;;;;;;17.00;8.73;;;8.00;99.90;;;;;;5068019;28;20985;-54
2021/11/20 01:27:16;;;;;;;16.80;9.43;;;8.10;99.90;;;;;;5067621;28;20499;-54
2021/11/20 01:29:42;;;;;;;18.05;9.15;;;8.10;99.90;;;;;;5069933;28;20418;-54
2021/11/20 01:32:08;;;;;;;18.23;8.93;;;8.00;99.90;;;;;;5071305;28;20809;-54
2021/11/20 01:34:34;;;;;;;20.45;9.68;;;8.00;99.90;;;;;;5054034;28;20416;-54
2021/11/20 01:37:02;;;;;;;19.70;10.23;;;8.00;99.90;;;;;;5072164;28;20475;-54
2021/11/20 01:39:32;;;;;;;20.10;10.40;;;8.10;99.90;;;;;;5071459;28;20376;-54
2021/11/20 01:42:12;;;;;;;18.92;9.63;;;8.00;99.90;;;;;;5071858;28;20860;-54
2021/11/20 01:44:48;;;;;;;18.80;9.98;;;7.80;99.90;;;;;;5071586;28;20399;-54
2021/11/20 01:47:25;;;;;;;19.92;10.02;;;7.90;99.90;;;;;;5071168;28;20375;-54
2021/11/20 01:49:56;;;;;;;17.85;10.10;;;7.90;99.90;;;;;;5071584;28;20438;-54
2021/11/20 01:52:42;;;;;;;19.25;9.57;;;8.10;99.90;;;;;;5071193;28;20449;-54
2021/11/20 01:55:19;;;;;;;19.30;10.52;;;8.10;99.90;;;;;;5070871;28;20372;-55
2021/11/20 01:58:03;;;;;;;21.98;11.02;;;7.90;99.90;;;;;;5071583;28;20380;-54
2021/11/20 02:00:37;;;;;;;19.30;9.98;;;7.90;99.90;;;;;;5070804;28;20387;-54
2021/11/20 02:03:36;;;;;;;19.70;10.77;;;8.10;99.90;;;;;;5071427;28;20403;-54
2021/11/20 02:06:20;;;;;;;20.13;10.18;;;8.10;99.90;;;;;;5071387;28;20916;-54
2021/11/20 02:09:01;;;;;;;19.75;10.02;;;8.10;99.90;;;;;;5071280;28;20371;-54
2021/11/20 02:11:46;;;;;;;19.45;10.52;;;8.00;99.90;;;;;;5070141;28;20573;-54
2021/11/20 02:14:15;;;;;;;22.40;11.25;;;8.00;99.90;;;;;;5070275;28;20390;-54
2021/11/20 02:16:46;;;;;;;21.67;11.43;;;8.00;99.90;;;;;;5070971;28;20380;-54
2021/11/20 02:19:17;;;;;;;21.40;11.20;;;8.10;99.90;;;;;;5070328;28;20793;-54
2021/11/20 02:22:04;;;;;;;22.17;12.05;;;8.00;99.90;;;;;;5071452;28;20371;-54
2021/11/20 02:24:30;;;;;;;27.85;13.30;;;7.80;99.90;;;;;;5070365;28;20492;-54
2021/11/20 02:26:55;;;;;;;28.27;14.38;;;7.80;99.90;;;;;;5071037;28;20380;-54
2021/11/20 02:29:21;;;;;;;26.07;12.80;;;7.80;99.90;;;;;;5070167;28;20383;-54
2021/11/20 02:31:56;;;;;;;26.27;13.80;;;7.90;99.90;;;;;;5071055;28;20384;-54
2021/11/20 02:34:26;;;;;;;27.73;13.25;;;8.10;99.90;;;;;;5070016;28;20900;-54
2021/11/20 02:36:52;;;;;;;27.57;13.77;;;8.10;99.90;;;;;;5070521;28;20430;-54
2021/11/20 02:39:22;;;;;;;28.40;13.90;;;8.00;99.90;;;;;;5070026;28;20462;-54
2021/11/20 02:41:51;;;;;;;30.13;14.32;;;7.90;99.90;;;;;;5051886;28;20754;-54
2021/11/20 02:44:19;;;;;;;25.30;12.30;;;7.90;99.90;;;;;;5069571;28;20884;-54
2021/11/20 02:46:48;;;;;;;25.65;13.70;;;7.70;99.90;;;;;;5070704;28;20415;-54
2021/11/20 02:49:15;;;;;;;29.63;14.18;;;7.70;99.90;;;;;;5069975;28;20479;-54
2021/11/20 02:51:45;;;;;;;26.50;13.15;;;7.80;99.90;;;;;;5070263;28;20440;-54
2021/11/20 02:54:20;;;;;;;30.73;14.07;;;7.80;99.90;;;;;;5069384;28;20387;-54
2021/11/20 02:56:52;;;;;;;26.70;13.55;;;7.80;99.90;;;;;;5070244;28;20450;-54
2021/11/20 02:59:18;;;;;;;27.63;12.80;;;7.80;99.90;;;;;;5069739;28;20371;-54
2021/11/20 03:01:45;;;;;;;23.80;12.70;;;7.80;99.90;;;;;;5070164;28;20990;-54
2021/11/20 03:04:14;;;;;;;27.40;14.10;;;7.80;99.90;;;;;;5069310;28;20404;-55
2021/11/20 03:06:40;;;;;;;25.80;12.98;;;7.90;99.90;;;;;;5070406;28;20380;-54
2021/11/20 03:09:09;;;;;;;26.03;13.10;;;7.90;99.90;;;;;;5069980;28;20806;-54
2021/11/20 03:11:35;;;;;;;27.27;13.17;;;7.90;99.90;;;;;;5069616;28;20865;-54
2021/11/20 03:14:07;;;;;;;26.88;13.68;;;7.90;99.90;;;;;;5069637;28;20471;-53
2021/11/20 03:16:46;;;;;;;24.77;13.00;;;7.90;99.90;;;;;;5069487;28;20402;-53
2021/11/20 03:19:12;;;;;;;27.52;13.65;;;8.00;99.90;;;;;;5069726;28;20383;-54
2021/11/20 03:21:41;;;;;;;24.83;12.65;;;8.10;99.90;;;;;;5070007;28;20387;-54
2021/11/20 03:24:11;;;;;;;25.52;12.63;;;8.10;99.90;;;;;;5052023;28;20418;-54
2021/11/20 03:26:37;;;;;;;25.63;12.90;;;8.40;99.90;;;;;;5069502;28;20384;-54
2021/11/20 03:29:03;;;;;;;27.98;13.45;;;8.20;99.90;;;;;;5069577;28;20718;-53
2021/11/20 03:31:29;;;;;;;26.00;13.23;;;8.10;99.90;;;;;;5068928;28;20873;-54
2021/11/20 03:33:55;;;;;;;25.65;12.95;;;8.10;99.90;;;;;;5069995;28;20433;-53
2021/11/20 03:36:21;;;;;;;30.77;13.35;;;8.00;99.90;;;;;;5069092;28;20402;-54
2021/11/20 03:38:47;;;;;;;27.05;13.68;;;8.10;99.90;;;;;;5070020;28;20891;-54
2021/11/20 03:41:13;;;;;;;25.33;12.73;;;8.30;99.90;;;;;;5069431;28;20400;-54
2021/11/20 03:43:39;;;;;;;27.08;13.90;;;8.30;99.90;;;;;;5069403;28;20479;-54
2021/11/20 03:46:05;;;;;;;27.67;12.90;;;8.40;99.90;;;;;;5069573;28;20508;-54
2021/11/20 03:48:32;;;;;;;24.52;12.20;;;8.40;99.90;;;;;;5068795;28;20422;-55
2021/11/20 03:50:57;;;;;;;27.02;13.82;;;8.40;99.90;;;;;;5069780;28;20384;-54
2021/11/20 03:53:23;;;;;;;24.67;12.80;;;8.40;99.90;;;;;;5067905;28;20437;-54
2021/11/20 03:55:50;;;;;;;30.83;14.15;;;8.40;99.90;;;;;;5069613;28;20495;-54
2021/11/20 03:58:20;;;;;;;24.60;12.70;;;8.50;99.90;;;;;;5069006;28;20441;-54
2021/11/20 04:00:56;;;;;;;23.88;12.40;;;8.40;99.90;;;;;;5069355;28;20384;-54
2021/11/20 04:03:22;;;;;;;25.05;12.45;;;8.30;99.90;;;;;;5068562;28;20410;-54
2021/11/20 04:05:49;;;;;;;25.73;12.50;;;8.20;99.90;;;;;;5069337;28;20471;-54
2021/11/20 04:08:15;;;;;;;23.35;12.60;;;8.30;99.90;;;;;;5068895;28;20372;-54
2021/11/20 04:10:41;;;;;;;24.07;12.40;;;8.50;99.90;;;;;;5069265;28;20460;-54
2021/11/20 04:13:07;;;;;;;26.58;12.52;;;8.60;99.90;;;;;;5069433;28;20793;-53
2021/11/20 04:15:32;;;;;;;24.60;12.90;;;8.50;99.90;;;;;;5068781;28;20391;-54
2021/11/20 04:17:58;;;;;;;23.73;12.13;;;8.50;99.90;;;;;;5069064;28;20717;-54
2021/11/20 04:20:25;;;;;;;23.40;12.00;;;8.50;99.90;;;;;;5068440;28;20368;-54
2021/11/20 04:22:51;;;;;;;24.23;12.38;;;8.50;99.90;;;;;;5068856;28;20400;-54
2021/11/20 04:25:21;;;;;;;25.77;12.30;;;8.50;99.90;;;;;;5068601;28;20475;-54
2021/11/20 04:27:46;;;;;;;21.97;12.07;;;8.60;99.90;;;;;;5069338;28;20408;-54
2021/11/20 04:30:14;;;;;;;32.85;16.58;;;8.70;99.90;;;;;;5069202;28;20477;-54
2021/11/20 04:32:40;;;;;;;21.83;11.85;;;8.80;99.90;;;;;;5068469;28;20446;-54
2021/11/20 04:35:07;;;;;;;26.33;12.57;;;8.60;99.90;;;;;;5069184;28;20506;-54
2021/11/20 04:37:33;;;;;;;23.77;12.23;;;8.40;99.90;;;;;;5067334;28;20768;-54
2021/11/20 04:39:59;;;;;;;24.87;12.60;;;8.30;99.90;;;;;;5068590;28;20396;-54
2021/11/20 04:42:25;;;;;;;24.40;12.38;;;8.40;99.90;;;;;;5068316;28;20376;-54
2021/11/20 04:44:51;;;;;;;25.73;13.27;;;8.50;99.90;;;;;;5074953;28;20415;-54
2021/11/20 04:47:17;;;;;;;25.03;12.30;;;8.50;99.90;;;;;;5064593;28;20478;-54
2021/11/20 04:49:43;;;;;;;23.90;12.57;;;8.50;99.90;;;;;;5068429;28;20434;-53
2021/11/20 04:52:09;;;;;;;26.00;13.30;;;8.50;99.90;;;;;;5068795;28;20474;-54
2021/11/20 04:54:35;;;;;;;26.55;13.02;;;8.40;99.90;;;;;;5067979;28;20658;-54
2021/11/20 04:57:01;;;;;;;23.45;11.85;;;8.30;99.90;;;;;;5068681;28;20856;-54
2021/11/20 04:59:27;;;;;;;24.92;12.50;;;8.20;99.90;;;;;;5068072;28;20372;-54
2021/11/20 05:01:52;;;;;;;25.73;12.37;;;8.20;99.90;;;;;;5068616;28;20384;-54
2021/11/20 05:04:18;;;;;;;25.15;13.05;;;8.10;99.90;;;;;;5069523;28;20877;-54
2021/11/20 05:06:44;;;;;;;26.30;11.90;;;8.20;99.90;;;;;;5072734;28;20464;-54
2021/11/20 05:09:11;;;;;;;23.05;11.60;;;8.20;99.90;;;;;;5072771;28;20471;-54
2021/11/20 05:11:37;;;;;;;21.88;11.68;;;8.10;99.90;;;;;;5071256;28;20437;-54
2021/11/20 05:14:03;;;;;;;21.42;11.43;;;8.20;99.90;;;;;;5072250;28;20797;-54
2021/11/20 05:16:29;;;;;;;23.83;11.48;;;8.30;99.90;;;;;;5071759;28;20368;-54
2021/11/20 05:18:55;;;;;;;21.73;11.88;;;8.40;99.90;;;;;;5054556;28;20530;-54
2021/11/20 05:21:23;;;;;;;21.53;11.47;;;8.40;99.90;;;;;;5071474;28;20383;-54
2021/11/20 05:23:49;;;;;;;22.67;11.95;;;8.40;99.90;;;;;;5071879;28;20476;-54
2021/11/20 05:26:16;;;;;;;22.95;11.00;;;8.40;99.90;;;;;;5052092;28;20396;-54
2021/11/20 05:28:46;;;;;;;22.55;11.45;;;8.50;99.90;;;;;;5071224;28;20884;-54
2021/11/20 05:31:12;;;;;;;22.17;11.10;;;8.50;99.90;;;;;;5072025;28;20383;-54
2021/11/20 05:33:45;;;;;;;21.38;11.20;;;8.60;99.90;;;;;;5071476;28;20394;-54
2021/11/20 05:36:13;;;;;;;22.92;12.40;;;8.50;99.90;;;;;;5072093;28;20384;-54
2021/11/20 05:38:39;;;;;;;22.20;11.25;;;8.50;99.90;;;;;;5071241;28;20551;-54
2021/11/20 05:41:06;;;;;;;21.90;11.50;;;8.50;99.90;;;;;;5072388;28;20414;-54
2021/11/20 05:43:32;;;;;;;23.65;11.77;;;8.40;99.90;;;;;;5070953;28;20449;-53
2021/11/20 05:46:01;;;;;;;24.70;12.30;;;8.40;99.90;;;;;;5072266;28;20479;-54
2021/11/20 05:48:27;;;;;;;21.48;11.85;;;8.30;99.90;;;;;;5071052;28;20406;-54
2021/11/20 05:50:53;;;;;;;22.83;12.37;;;8.30;99.90;;;;;;5071441;28;20384;-54
2021/11/20 05:53:21;;;;;;;23.02;12.30;;;8.30;99.90;;;;;;5071597;28;20392;-54
2021/11/20 05:55:49;;;;;;;24.77;13.52;;;8.30;99.90;;;;;;5072017;28;20388;-54
2021/11/20 05:58:16;;;;;;;24.08;13.40;;;8.40;99.90;;;;;;5071213;28;20420;-54
2021/11/20 06:00:46;;;;;;;23.90;13.50;;;8.40;99.90;;;;;;5052216;28;21123;-54
2021/11/20 06:03:13;;;;;;;23.55;13.18;;;8.40;99.90;;;;;;5071344;28;20467;-54
2021/11/20 06:05:40;;;;;;;26.60;14.10;;;8.50;99.90;;;;;;5070437;28;20415;-54
2021/11/20 06:08:07;;;;;;;22.60;12.80;;;8.40;99.90;;;;;;5071535;28;20833;-54
2021/11/20 06:10:34;;;;;;;22.93;12.07;;;8.40;99.90;;;;;;5070855;28;20407;-54
2021/11/20 06:13:00;;;;;;;24.37;13.17;;;8.40;99.90;;;;;;5071321;28;20885;-54
2021/11/20 06:15:28;;;;;;;22.27;12.38;;;8.50;99.90;;;;;;5069779;28;20379;-55
2021/11/20 06:17:56;;;;;;;24.80;13.30;;;8.50;99.90;;;;;;5070292;28;20438;-54
2021/11/20 06:20:21;;;;;;;27.05;13.50;;;8.50;99.90;;;;;;5070738;28;20466;-54
2021/11/20 06:22:48;;;;;;;26.77;13.60;;;8.50;99.90;;;;;;5070534;28;20882;-54
2021/11/20 06:25:14;;;;;;;23.50;12.13;;;8.50;99.90;;;;;;5053264;28;20524;-54
2021/11/20 06:27:40;;;;;;;23.38;12.90;;;8.50;99.90;;;;;;5070288;28;20386;-54
2021/11/20 06:30:14;;;;;;;24.40;13.70;;;8.40;99.90;;;;;;5065036;28;20410;-54
2021/11/20 06:32:40;;;;;;;26.40;13.43;;;8.30;99.90;;;;;;5059020;28;20414;-54
2021/11/20 06:35:11;;;;;;;25.60;13.00;;;8.20;99.90;;;;;;5063251;28;20395;-54
2021/11/20 06:37:39;;;;;;;25.75;13.32;;;8.10;99.90;;;;;;5051665;28;20384;-54
2021/11/20 06:40:06;;;;;;;25.48;13.55;;;8.10;99.90;;;;;;5057907;28;20409;-54
2021/11/20 06:42:32;;;;;;;21.67;12.48;;;9.30;99.90;;;;;;5049344;28;20394;-54
2021/11/20 06:44:58;;;;;;;24.35;12.13;;;8.10;99.90;;;;;;5050328;28;20798;-54
2021/11/20 06:47:24;;;;;;;20.88;11.32;;;8.00;99.90;;;;;;5053367;28;20478;-54
2021/11/20 06:49:50;;;;;;;22.63;12.47;;;7.90;99.90;;;;;;5070082;28;20905;-53
2021/11/20 06:52:16;;;;;;;24.92;11.65;;;7.80;99.90;;;;;;5059722;28;20385;-53
2021/11/20 06:54:42;;;;;;;23.27;12.27;;;7.70;99.90;;;;;;5051162;28;20473;-53
2021/11/20 06:57:10;;;;;;;25.47;12.80;;;7.70;99.90;;;;;;5069883;28;20813;-53
2021/11/20 07:02:07;;;;;;;25.42;13.02;;;7.70;99.90;;;;;;5069880;28;20451;-53
2021/11/20 07:04:32;;;;;;;22.35;12.00;;;7.80;99.90;;;;;;5061847;28;20418;-54
2021/11/20 07:07:04;;;;;;;24.90;12.90;;;7.90;99.90;;;;;;5067466;28;20396;-53
2021/11/20 07:09:32;;;;;;;22.92;12.50;;;7.80;99.90;;;;;;5055685;28;20395;-54
2021/11/20 07:11:59;;;;;;;24.20;12.38;;;7.90;99.90;;;;;;5051945;28;20502;-54
2021/11/20 07:14:25;;;;;;;24.35;12.50;;;8.00;99.90;;;;;;5065138;28;20491;-54
2021/11/20 07:16:52;;;;;;;24.02;13.02;;;8.00;99.90;;;;;;5061874;28;20386;-53
2021/11/20 07:19:17;;;;;;;26.00;13.02;;;7.90;99.90;;;;;;5060664;28;20755;-53
2021/11/20 07:21:43;;;;;;;24.30;13.03;;;7.90;99.90;;;;;;5064420;28;20400;-54
2021/11/20 07:24:15;;;;;;;22.40;12.50;;;8.10;99.90;;;;;;5060397;28;20417;-53
2021/11/20 07:26:43;;;;;;;22.88;12.23;;;8.10;99.90;;;;;;5048478;28;21226;-53
2021/11/20 07:29:10;;;;;;;26.95;13.73;;;8.10;99.90;;;;;;5048820;28;20400;-54
2021/11/20 07:31:36;;;;;;;25.98;14.55;;;8.20;99.90;;;;;;5060982;28;20424;-53
2021/11/20 07:34:02;;;;;;;25.50;13.90;;;8.20;99.90;;;;;;5069222;28;20857;-54
2021/11/20 07:36:28;;;;;;;26.52;14.10;;;8.20;99.90;;;;;;5065991;28;20815;-54
2021/11/20 07:38:57;;;;;;;28.35;13.60;;;8.10;99.90;;;;;;5054265;28;20889;-53
2021/11/20 07:41:27;;;;;;;25.27;13.93;;;8.20;99.90;;;;;;5055867;28;20416;-54
2021/11/20 07:43:52;;;;;;;27.05;14.10;;;8.30;99.90;;;;;;5052659;28;20447;-54
2021/11/20 07:46:19;;;;;;;25.67;13.75;;;8.40;99.90;;;;;;5060107;28;20487;-53
2021/11/20 07:48:45;;;;;;;23.50;13.20;;;8.50;99.90;;;;;;5065335;28;20387;-54
2021/11/20 07:51:13;;;;;;;24.05;12.93;;;8.50;99.90;;;;;;5062025;28;20393;-53
2021/11/20 07:53:39;;;;;;;24.53;13.87;;;8.50;99.90;;;;;;5063498;28;20818;-54
2021/11/20 07:56:05;;;;;;;27.05;13.75;;;8.50;99.90;;;;;;5060337;28;20373;-54
2021/11/20 07:58:32;;;;;;;26.75;14.77;;;8.60;99.90;;;;;;5059416;28;20388;-54
2021/11/20 08:00:57;;;;;;;24.73;13.95;;;8.70;99.90;;;;;;5066091;28;20922;-54
2021/11/20 08:03:24;;;;;;;25.50;13.50;;;8.60;99.90;;;;;;5063207;28;20406;-54
2021/11/20 08:05:52;;;;;;;24.85;13.20;;;8.60;99.90;;;;;;5057744;28;20454;-54
2021/11/20 08:08:20;;;;;;;27.42;14.82;;;8.60;99.90;;;;;;5066461;28;20402;-54
2021/11/20 08:10:47;;;;;;;25.65;13.55;;;8.60;99.90;;;;;;5063972;28;20591;-54
2021/11/20 08:13:12;;;;;;;25.85;14.18;;;8.80;99.90;;;;;;5082899;28;20388;-54
2021/11/20 08:15:38;;;;;;;24.67;13.20;;;8.90;99.90;;;;;;5078563;28;20391;-53
2021/11/20 08:18:04;;;;;;;25.70;13.93;;;8.80;99.90;;;;;;5084817;28;20397;-53
2021/11/20 08:20:34;;;;;;;23.95;13.85;;;8.70;99.90;;;;;;5082133;28;20390;-54
2021/11/20 08:23:02;;;;;;;25.98;13.40;;;8.90;99.90;;;;;;5082549;28;20386;-54
2021/11/20 08:25:28;;;;;;;25.33;13.43;;;8.90;99.90;;;;;;5080074;28;20469;-54
2021/11/20 08:27:55;;;;;;;25.05;13.52;;;8.90;99.90;;;;;;5085737;28;20465;-54
2021/11/20 08:30:23;;;;;;;25.08;13.70;;;8.80;99.90;;;;;;5081384;28;20428;-53
2021/11/20 08:32:50;;;;;;;24.60;13.02;;;9.00;99.90;;;;;;5067489;28;20380;-54
2021/11/20 08:35:18;;;;;;;25.83;13.50;;;8.90;99.90;;;;;;5068369;28;20449;-54
2021/11/20 08:37:44;;;;;;;26.80;13.02;;;9.00;99.90;;;;;;5073319;28;20980;-54
2021/11/20 08:40:13;;;;;;;25.05;13.68;;;7.90;99.90;;;;;;5074165;28;20398;-54
2021/11/20 08:42:40;;;;;;;25.33;14.05;;;9.00;99.90;;;;;;5084738;28;20390;-54
2021/11/20 08:45:09;;;;;;;27.08;12.70;;;9.00;99.90;;;;;;5067671;28;20403;-54
2021/11/20 08:47:35;;;;;;;25.38;13.95;;;9.20;99.90;;;;;;5075757;28;20390;-54
2021/11/20 08:50:03;;;;;;;24.92;13.32;;;9.20;99.90;;;;;;5068351;28;20372;-54
2021/11/20 08:52:29;;;;;;;24.92;12.20;;;9.30;99.90;;;;;;5067831;28;20418;-54
2021/11/20 08:54:56;;;;;;;23.33;12.37;;;9.30;99.90;;;;;;5067691;28;20410;-54
2021/11/20 08:57:26;;;;;;;24.92;12.13;;;9.30;99.90;;;;;;5072141;28;20798;-54
2021/11/20 08:59:52;;;;;;;23.00;12.83;;;9.40;99.90;;;;;;5067452;28;20389;-54
2021/11/20 09:02:28;;;;;;;23.80;12.20;;;9.40;99.90;;;;;;5080734;28;20406;-54
2021/11/20 09:04:56;;;;;;;21.95;11.90;;;9.40;99.90;;;;;;5086039;28;20402;-54
2021/11/20 09:07:39;;;;;;;20.50;11.88;;;9.40;99.90;;;;;;5086919;28;20390;-54
2021/11/20 09:10:08;;;;;;;23.90;12.20;;;9.40;99.90;;;;;;5071504;28;20405;-54
2021/11/20 09:12:50;;;;;;;24.48;13.20;;;9.50;99.90;;;;;;5076120;28;20428;-54
2021/11/20 09:15:23;;;;;;;17.17;10.20;;;9.60;99.90;;;;;;5068674;28;20435;-54
2021/11/20 09:17:49;;;;;;;19.87;10.73;;;9.60;99.90;;;;;;5067212;28;20388;-54
2021/11/20 09:20:17;;;;;;;27.48;12.75;;;9.80;99.90;;;;;;5070159;28;20387;-54
2021/11/20 09:22:42;;;;;;;23.25;12.57;;;9.60;99.90;;;;;;5079319;28;20400;-54
2021/11/20 09:25:09;;;;;;;22.87;12.80;;;9.70;99.90;;;;;;5077066;28;20413;-54
2021/11/20 09:27:36;;;;;;;22.75;12.75;;;9.80;99.90;;;;;;5073341;28;20398;-54
2021/11/20 09:30:06;;;;;;;23.90;13.00;;;9.80;99.90;;;;;;5070095;28;20380;-54
2021/11/20 09:32:32;;;;;;;25.57;13.60;;;10.60;99.90;;;;;;5068094;28;20682;-55
2021/11/20 09:34:58;;;;;;;26.25;13.43;;;9.80;99.90;;;;;;5081085;28;20423;-54
2021/11/20 09:37:23;;;;;;;23.63;12.93;;;10.00;99.90;;;;;;5078687;28;20419;-54
2021/11/20 09:39:49;;;;;;;24.10;13.60;;;10.00;99.90;;;;;;5076859;28;20709;-54
2021/11/20 09:42:35;;;;;;;24.07;12.80;;;9.90;99.90;;;;;;5080438;28;20390;-54
2021/11/20 09:45:10;;;;;;;27.15;14.32;;;9.60;99.90;;;;;;5077788;28;20400;-54
2021/11/20 09:47:44;;;;;;;24.30;13.10;;;9.60;99.90;;;;;;5080839;28;20379;-55
2021/11/20 09:50:22;;;;;;;23.77;13.50;;;9.60;99.90;;;;;;5076784;28;20796;-54
2021/11/20 09:52:50;;;;;;;23.15;13.00;;;7.90;99.90;;;;;;5079291;28;20388;-54
2021/11/20 09:55:37;;;;;;;21.70;12.70;;;9.60;99.90;;;;;;5086236;28;20476;-54
2021/11/20 09:58:35;;;;;;;22.15;11.77;;;9.80;99.90;;;;;;5081466;28;20525;-54
2021/11/20 10:01:16;;;;;;;20.83;11.73;;;9.70;99.90;;;;;;5082139;28;20390;-54
2021/11/20 10:03:41;;;;;;;22.30;12.80;;;9.80;99.90;;;;;;5080434;28;20967;-54
2021/11/20 10:06:09;;;;;;;21.25;10.65;;;10.00;99.90;;;;;;5087451;28;20488;-54
2021/11/20 10:08:39;;;;;;;19.33;10.02;;;10.10;99.90;;;;;;5079965;28;20409;-54
2021/11/20 10:11:08;;;;;;;26.37;15.57;;;10.10;99.90;;;;;;5085476;28;20413;-54
2021/11/20 10:13:47;;;;;;;19.88;11.90;;;10.20;99.90;;;;;;5083331;28;20881;-54
2021/11/20 10:16:26;;;;;;;20.48;11.40;;;10.20;99.90;;;;;;5082988;28;20874;-54
2021/11/20 10:19:22;;;;;;;27.43;16.50;;;10.00;99.90;;;;;;5080485;28;20386;-54
2021/11/20 10:22:15;;;;;;;23.50;13.73;;;10.10;99.90;;;;;;5079414;28;20445;-54
2021/11/20 10:25:03;;;;;;;21.17;11.25;;;10.10;99.90;;;;;;5083157;28;20509;-54
2021/11/20 10:27:28;;;;;;;16.08;9.15;;;10.00;99.90;;;;;;5081631;28;20436;-54
2021/11/20 10:30:09;;;;;;;18.10;11.00;;;9.90;99.90;;;;;;5078878;28;20382;-54
2021/11/20 10:32:40;;;;;;;21.38;10.80;;;10.00;99.90;;;;;;5078143;28;20481;-54
2021/11/20 10:35:27;;;;;;;18.80;11.07;;;10.10;99.90;;;;;;5081169;28;20431;-54
2021/11/20 10:38:22;;;;;;;18.05;10.55;;;10.00;99.90;;;;;;5079709;28;20433;-54
2021/11/20 10:41:05;;;;;;;17.88;9.25;;;10.10;99.90;;;;;;5082296;28;20462;-54
2021/11/20 10:43:54;;;;;;;18.98;9.80;;;10.20;99.90;;;;;;5081031;28;20510;-54
2021/11/20 10:46:19;;;;;;;17.10;8.90;;;10.10;99.90;;;;;;5084765;28;20448;-54
2021/11/20 10:49:06;;;;;;;15.70;7.83;;;10.20;99.90;;;;;;5080098;28;20408;-54
2021/11/20 10:51:48;;;;;;;15.77;8.35;;;10.10;99.90;;;;;;5079504;28;20433;-54
2021/11/20 10:54:38;;;;;;;16.90;7.90;;;10.00;99.90;;;;;;5079600;28;20391;-54
2021/11/20 10:57:27;;;;;;;14.45;7.68;;;8.40;99.90;;;;;;5081446;28;21070;-54
2021/11/20 11:00:12;;;;;;;16.90;9.00;;;10.10;99.90;;;;;;5073880;28;20419;-54
2021/11/20 11:03:13;;;;;;;17.42;8.10;;;10.10;99.90;;;;;;5077542;28;20399;-54
2021/11/20 11:06:14;;;;;;;14.67;8.33;;;10.00;99.90;;;;;;5064291;28;20402;-54
2021/11/20 11:08:46;;;;;;;15.30;8.40;;;10.10;99.90;;;;;;5081488;28;20763;-55
2021/11/20 11:11:17;;;;;;;15.90;7.80;;;10.10;99.90;;;;;;5075578;28;20437;-54
2021/11/20 11:13:49;;;;;;;14.73;7.00;;;10.10;99.90;;;;;;5067383;28;20851;-54
2021/11/20 11:16:30;;;;;;;13.90;6.72;;;10.00;99.90;;;;;;5081584;28;20409;-54
2021/11/20 11:19:08;;;;;;;13.65;6.70;;;10.00;99.90;;;;;;5075954;28;20398;-55
2021/11/20 11:21:45;;;;;;;12.30;5.90;;;9.90;99.90;;;;;;5083784;28;20813;-55
2021/11/20 11:24:19;;;;;;;12.20;5.10;;;9.90;99.90;;;;;;5083661;28;20401;-55
2021/11/20 11:26:51;;;;;;;10.77;5.57;;;10.00;99.90;;;;;;5070757;28;20525;-55
2021/11/20 11:29:29;;;;;;;10.50;5.10;;;10.10;99.90;;;;;;5080835;28;20447;-55
2021/11/20 11:31:55;;;;;;;11.35;5.47;;;10.10;99.90;;;;;;5076397;28;20398;-55
2021/11/20 11:34:36;;;;;;;11.50;5.90;;;10.20;99.90;;;;;;5080922;28;20772;-55
2021/11/20 11:37:19;;;;;;;11.88;5.97;;;10.20;99.90;;;;;;5080771;28;20402;-55
2021/11/20 11:40:03;;;;;;;11.98;6.03;;;10.20;99.90;;;;;;5082867;28;20485;-55
2021/11/20 11:42:43;;;;;;;11.20;5.90;;;10.20;99.90;;;;;;5082598;28;20410;-54
2021/11/20 11:45:30;;;;;;;12.70;6.80;;;10.20;99.90;;;;;;5083426;28;20970;-54
2021/11/20 11:48:13;;;;;;;13.00;6.75;;;10.00;99.90;;;;;;5081597;28;20535;-54
2021/11/20 11:51:00;;;;;;;11.93;6.15;;;10.00;99.90;;;;;;5079222;28;20525;-55
2021/11/20 11:53:34;;;;;;;11.82;6.20;;;10.00;99.90;;;;;;5084327;28;20401;-54
2021/11/20 11:56:06;;;;;;;13.77;7.47;;;10.10;99.90;;;;;;5080492;28;20403;-54
2021/11/20 11:59:02;;;;;;;19.63;10.27;;;10.10;99.90;;;;;;5068977;28;20405;-54
2021/11/20 12:01:44;;;;;;;12.50;6.80;;;10.10;99.90;;;;;;5071737;28;20407;-54
2021/11/20 12:04:17;;;;;;;18.55;10.23;;;10.00;99.90;;;;;;5072563;28;20406;-54
2021/11/20 12:07:00;;;;;;;15.10;7.25;;;10.00;99.90;;;;;;5082196;28;20490;-55
2021/11/20 12:09:30;;;;;;;13.73;7.15;;;10.20;99.90;;;;;;5085672;28;20377;-54
2021/11/20 12:12:10;;;;;;;16.53;8.30;;;10.10;99.90;;;;;;5087103;28;20453;-54
2021/11/20 12:14:44;;;;;;;12.70;7.05;;;10.10;99.90;;;;;;5081479;28;20391;-54
2021/11/20 12:17:41;;;;;;;13.10;7.30;;;10.10;99.90;;;;;;5081399;28;20490;-54
2021/11/20 12:20:16;;;;;;;12.63;6.63;;;10.10;99.90;;;;;;5088183;28;20721;-54
2021/11/20 12:23:00;;;;;;;12.98;6.78;;;10.10;99.90;;;;;;5078500;28;20399;-55
2021/11/20 12:25:46;;;;;;;14.52;7.30;;;10.10;99.90;;;;;;5068522;28;20394;-54
2021/11/20 12:28:49;;;;;;;13.98;7.70;;;10.60;99.90;;;;;;5083217;28;20436;-54
2021/11/20 12:31:46;;;;;;;17.02;9.60;;;10.00;99.90;;;;;;5069859;28;20524;-54
2021/11/20 12:34:33;;;;;;;14.02;8.13;;;10.00;99.90;;;;;;5073014;28;20745;-54
2021/11/20 12:37:02;;;;;;;16.90;8.97;;;10.10;99.90;;;;;;5070281;28;20687;-54
2021/11/20 12:39:40;;;;;;;14.30;8.13;;;10.10;99.90;;;;;;5071951;28;20442;-54
2021/11/20 12:42:56;;;;;;;15.88;7.82;;;9.90;99.90;;;;;;5074371;28;20463;-54
2021/11/20 12:45:52;;;;;;;15.63;7.68;;;10.10;99.90;;;;;;4984308;28;20804;-53
2021/11/20 12:48:35;;;;;;;12.40;7.35;;;10.30;99.90;;;;;;5074558;28;20406;-54
2021/11/20 12:51:22;;;;;;;33.80;15.95;;;10.50;99.90;;;;;;5067015;28;20450;-54
2021/11/20 12:53:57;;;;;;;12.75;7.30;;;10.40;99.90;;;;;;5067171;28;20412;-54
2021/11/20 12:56:30;;;;;;;70.35;31.42;;;10.40;99.90;;;;;;5070683;28;20412;-54
2021/11/20 12:58:59;;;;;;;21.57;10.83;;;10.30;99.90;;;;;;5080522;28;20411;-55
2021/11/20 13:01:31;;;;;;;22.10;12.05;;;10.10;99.90;;;;;;5082018;28;20478;-56